Terminal Aerodrome Forecast
Issued by NWS Boston, MA

Home | Current Version | Previous Version | Text Only | Print | Product List | Glossary On
Versions: 1 2 3 4 5 6 7 8 9 10 11 12 13 14 15 16 17 18 19 20 21 22 23 24 25 26 27 28 29 30 31 32 33 34
850
FTUS41 KBOX 081740 AAB
TAFORH
TAF AMD
KORH 081740Z 0818/0918 02011G20KT 1/4SM +SN VV009
     FM082000 02011G20KT 1/2SM SN OVC012
     FM082300 01009KT 1SM -SN OVC020
     FM090500 34006KT P6SM VCSH OVC015
     FM091100 35004KT P6SM OVC020=

USA.gov is the U.S. government's official web portal to all federal, state and local government web resources and services.